Terminal Aerodrome Forecast
Issued by NWS Blacksburg, VA

Home | Current Version | Previous Version | Text Only | Print | Product List | Glossary On
Versions: 1 2 3 4 5 6 7 8 9 10 11 12 13 14 15 16 17 18 19 20 21 22 23 24 25 26 27 28 29 30 31 32 33 34 35 36 37 38 39 40
577
FTUS41 KRNK 221735
TAFBLF
TAF
KBLF 221735Z 2218/2318 12006KT 3SM BR OVC006
     FM230000 12008KT 1SM BR VCSH OVC008
     FM230200 11010G28KT P6SM -SHRA OVC008
     FM230700 09009KT 4SM RA OVC003
     FM231200 13005KT 6SM -RA BKN003
     FM231500 21004KT 6SM -RA OVC003
     FM231700 29005KT 6SM -RA OVC003=

USA.gov is the U.S. government's official web portal to all federal, state and local government web resources and services.